createdAt,value
2022-10-08T00:01:31.514Z,97.85
2022-10-08T00:04:01.295Z,97.87
2022-10-08T00:06:31.150Z,97.75
2022-10-08T00:09:01.893Z,98.39
2022-10-08T00:11:33.470Z,98.38
2022-10-08T00:14:02.942Z,98.37
2022-10-08T00:16:32.783Z,98.15
2022-10-08T00:19:04.867Z,98.42
2022-10-08T00:21:35.357Z,98.70
2022-10-08T00:24:04.822Z,98.78
2022-10-08T00:26:37.487Z,99.23
2022-10-08T00:29:12.583Z,99.36
2022-10-08T00:31:42.720Z,99.61
2022-10-08T00:34:14.785Z,99.83
2022-10-08T00:36:43.335Z,99.81
2022-10-08T00:39:15.516Z,99.58
2022-10-08T00:41:45.360Z,99.30
2022-10-08T00:44:54.253Z,99.47
2022-10-08T00:47:35.999Z,99.73
2022-10-08T00:50:11.216Z,99.60
2022-10-08T00:52:42.795Z,99.21
2022-10-08T00:55:11.739Z,99.23
2022-10-08T00:57:40.507Z,98.94
2022-10-08T01:00:12.746Z,99.17
2022-10-08T01:02:41.384Z,98.68
2022-10-08T01:05:14.030Z,98.33
2022-10-08T01:07:49.588Z,98.72
2022-10-08T01:10:32.879Z,98.23
2022-10-08T01:13:17.655Z,97.40
2022-10-08T01:15:55.047Z,96.85
2022-10-08T01:18:31.934Z,96.23
2022-10-08T01:21:08.872Z,95.99
2022-10-08T01:23:58.012Z,96.11
2022-10-08T01:26:42.516Z,96.44
2022-10-08T01:29:17.438Z,96.34
2022-10-08T01:31:49.181Z,96.63
2022-10-08T01:34:21.789Z,96.36
2022-10-08T01:36:53.282Z,96.19
2022-10-08T01:39:24.085Z,96.14
2022-10-08T01:41:56.477Z,96.37
2022-10-08T01:44:30.120Z,96.65
2022-10-08T01:47:01.233Z,96.70
2022-10-08T01:49:34.503Z,96.78
2022-10-08T01:52:09.040Z,97.00
2022-10-08T01:54:40.582Z,96.82
2022-10-08T01:57:11.560Z,96.76
2022-10-08T01:59:46.249Z,97.04
2022-10-08T02:02:19.992Z,97.46
2022-10-08T02:04:49.352Z,97.79
2022-10-08T02:07:19.557Z,97.63
2022-10-08T02:09:52.438Z,97.24
2022-10-08T02:12:23.143Z,97.41
2022-10-08T02:14:55.586Z,97.47
2022-10-08T02:17:37.962Z,97.87
2022-10-08T02:20:12.588Z,97.46
2022-10-08T02:22:48.662Z,97.75
2022-10-08T02:25:26.089Z,97.29
2022-10-08T02:28:01.080Z,97.66
2022-10-08T02:30:38.621Z,97.54
2022-10-08T02:33:13.353Z,97.80
2022-10-08T02:35:48.149Z,97.63
2022-10-08T02:38:21.277Z,98.28
2022-10-08T02:40:54.038Z,97.78
2022-10-08T02:43:27.129Z,97.43
2022-10-08T02:46:00.347Z,96.99
2022-10-08T02:48:32.018Z,96.61
2022-10-08T02:51:04.456Z,97.45
2022-10-08T02:53:33.875Z,97.75
2022-10-08T02:56:16.541Z,97.72
2022-10-08T02:58:45.999Z,98.03
2022-10-08T03:01:25.321Z,97.76
2022-10-08T03:03:59.920Z,97.86
2022-10-08T03:06:30.137Z,98.05
2022-10-08T03:09:00.844Z,98.59
2022-10-08T03:11:31.170Z,98.51
2022-10-08T03:14:00.981Z,98.28
2022-10-08T03:16:39.533Z,98.58
2022-10-08T03:19:10.424Z,99.02
2022-10-08T03:21:40.172Z,99.31
2022-10-08T03:24:08.832Z,100.00
2022-10-08T03:26:37.486Z,100.00
2022-10-08T03:29:06.603Z,100.00
2022-10-08T03:31:36.602Z,100.00
2022-10-08T03:34:04.815Z,100.00
2022-10-08T03:36:33.258Z,100.00
2022-10-08T03:39:01.345Z,100.00
2022-10-08T03:41:31.394Z,100.00
2022-10-08T03:44:00.817Z,100.00
2022-10-08T03:46:29.075Z,100.00
2022-10-08T03:48:58.635Z,100.00
2022-10-08T03:51:26.996Z,100.00
2022-10-08T03:53:55.105Z,100.00
2022-10-08T03:56:25.093Z,100.00
2022-10-08T03:58:55.294Z,100.00
2022-10-08T04:01:24.126Z,100.00
2022-10-08T04:03:52.263Z,100.00
2022-10-08T04:06:21.859Z,100.00
2022-10-08T04:08:49.970Z,100.00
2022-10-08T04:11:19.161Z,100.00
2022-10-08T04:13:47.309Z,100.00
2022-10-08T04:16:18.167Z,100.00
2022-10-08T04:18:47.118Z,100.00
2022-10-08T04:21:18.553Z,100.00
2022-10-08T04:23:49.661Z,100.00
2022-10-08T04:26:18.324Z,100.00
2022-10-08T04:28:48.174Z,100.00
2022-10-08T04:31:18.537Z,100.00
2022-10-08T04:33:47.489Z,100.00
2022-10-08T04:36:17.988Z,100.00
2022-10-08T04:38:48.091Z,100.00
2022-10-08T04:41:18.472Z,100.00
2022-10-08T04:43:47.695Z,100.00
2022-10-08T04:46:18.042Z,100.00
2022-10-08T04:48:48.913Z,100.00
2022-10-08T04:51:17.567Z,100.00
2022-10-08T04:53:47.894Z,100.00
2022-10-08T04:56:18.355Z,100.00
2022-10-08T04:58:46.958Z,99.66
2022-10-08T05:01:18.027Z,99.10
2022-10-08T05:03:47.908Z,98.18
2022-10-08T05:06:16.700Z,98.29
2022-10-08T05:08:45.112Z,97.87
2022-10-08T05:11:15.351Z,97.64
2022-10-08T05:13:43.970Z,97.57
2022-10-08T05:16:14.175Z,96.90
2022-10-08T05:18:43.928Z,96.05
2022-10-08T05:21:14.739Z,95.11
2022-10-08T05:23:44.079Z,94.91
2022-10-08T05:26:15.686Z,94.47
2022-10-08T05:28:44.224Z,93.39
2022-10-08T05:31:12.599Z,92.76
2022-10-08T05:33:41.159Z,92.17
2022-10-08T05:36:11.795Z,91.65
2022-10-08T05:38:39.871Z,91.21
2022-10-08T05:41:12.416Z,90.42
2022-10-08T05:43:42.671Z,89.81
2022-10-08T05:46:11.361Z,88.52
2022-10-08T05:48:40.127Z,87.62
2022-10-08T05:51:10.704Z,87.84
2022-10-08T05:53:40.452Z,87.92
2022-10-08T05:56:10.215Z,87.91
2022-10-08T05:58:40.322Z,87.36
2022-10-08T06:01:14.269Z,87.13
2022-10-08T06:03:42.752Z,86.67
2022-10-08T06:06:13.118Z,83.40
2022-10-08T06:08:41.656Z,80.00
2022-10-08T06:11:09.916Z,77.79
2022-10-08T06:13:38.326Z,76.17
2022-10-08T06:16:08.493Z,76.15
2022-10-08T06:18:40.218Z,76.47
2022-10-08T06:21:10.338Z,76.95
2022-10-08T06:23:39.329Z,77.67
2022-10-08T06:26:08.999Z,77.24
2022-10-08T06:28:39.536Z,77.48
2022-10-08T06:31:10.039Z,78.12
2022-10-08T06:33:39.766Z,78.98
2022-10-08T06:36:09.262Z,78.81
2022-10-08T06:38:37.497Z,79.48
2022-10-08T06:41:05.836Z,78.90
2022-10-08T06:43:33.929Z,77.75
2022-10-08T06:46:05.677Z,77.37
2022-10-08T06:48:34.198Z,76.81
2022-10-08T06:51:06.983Z,75.02
2022-10-08T06:53:38.839Z,76.44
2022-10-08T06:56:10.757Z,76.90
2022-10-08T06:58:39.453Z,76.47
2022-10-08T07:01:09.415Z,75.31
2022-10-08T07:03:38.123Z,74.02
2022-10-08T07:06:09.899Z,73.35
2022-10-08T07:08:38.310Z,73.53
2022-10-08T07:11:07.945Z,72.74
2022-10-08T07:13:36.934Z,71.88
2022-10-08T07:16:06.166Z,71.20
2022-10-08T07:18:35.621Z,71.71
2022-10-08T07:21:03.905Z,72.16
2022-10-08T07:23:33.765Z,71.23
2022-10-08T07:26:03.799Z,71.68
2022-10-08T07:28:33.927Z,71.81
2022-10-08T07:31:05.630Z,69.44
2022-10-08T07:33:34.160Z,69.25
2022-10-08T07:36:10.601Z,67.35
2022-10-08T07:38:40.562Z,67.34
2022-10-08T07:41:09.797Z,65.80
2022-10-08T07:43:41.304Z,65.75
2022-10-08T07:46:10.357Z,64.88
2022-10-08T07:48:39.318Z,64.66
2022-10-08T07:51:09.708Z,64.30
2022-10-08T07:53:39.519Z,62.77
2022-10-08T07:56:08.631Z,61.88
2022-10-08T07:58:37.529Z,60.92
2022-10-08T08:01:08.082Z,60.41
2022-10-08T08:03:36.919Z,60.13
2022-10-08T08:06:09.401Z,59.68
2022-10-08T08:08:39.962Z,58.65
2022-10-08T08:11:10.862Z,58.61
2022-10-08T08:13:40.474Z,58.71
2022-10-08T08:16:11.123Z,58.30
2022-10-08T08:18:42.317Z,57.79
2022-10-08T08:21:12.861Z,55.92
2022-10-08T08:23:44.229Z,56.42
2022-10-08T08:26:14.157Z,53.57
2022-10-08T08:28:42.799Z,53.96
2022-10-08T08:31:12.290Z,53.86
2022-10-08T08:33:40.646Z,54.98
2022-10-08T08:36:09.086Z,54.40
2022-10-08T08:38:38.081Z,54.94
2022-10-08T08:41:22.935Z,52.74
2022-10-08T08:43:59.768Z,54.16
2022-10-08T08:46:29.880Z,54.17
2022-10-08T08:49:01.393Z,54.69
2022-10-08T08:51:29.701Z,54.61
2022-10-08T08:53:57.796Z,55.21
2022-10-08T08:56:28.123Z,56.18
2022-10-08T08:59:01.885Z,55.57
2022-10-08T09:01:37.188Z,54.79
2022-10-08T09:04:11.090Z,54.15
2022-10-08T09:06:41.169Z,53.19
2022-10-08T09:09:21.825Z,51.62
2022-10-08T09:11:51.517Z,52.37
2022-10-08T09:14:33.176Z,53.15
2022-10-08T09:17:03.726Z,53.00
2022-10-08T09:19:32.602Z,53.88
2022-10-08T09:22:00.689Z,54.28
2022-10-08T09:24:29.894Z,53.55
2022-10-08T09:26:59.590Z,53.95
2022-10-08T09:29:35.335Z,53.56
2022-10-08T09:32:03.651Z,54.80
2022-10-08T09:34:31.962Z,54.12
2022-10-08T09:37:06.253Z,52.77
2022-10-08T09:39:37.209Z,52.72
2022-10-08T09:42:17.387Z,52.83
2022-10-08T09:44:47.248Z,52.45
2022-10-08T09:47:18.915Z,50.85
2022-10-08T09:49:50.066Z,51.96
2022-10-08T09:52:23.026Z,52.27
2022-10-08T09:54:54.952Z,50.80
2022-10-08T09:57:24.770Z,50.38
2022-10-08T09:59:55.488Z,50.75
2022-10-08T10:02:32.783Z,51.83
2022-10-08T10:05:02.571Z,51.18
2022-10-08T10:07:43.253Z,51.54
2022-10-08T10:10:18.202Z,50.90
2022-10-08T10:12:52.643Z,50.83
2022-10-08T10:15:24.156Z,50.88
2022-10-08T10:17:55.879Z,50.30
2022-10-08T10:20:29.730Z,51.55
2022-10-08T10:23:01.024Z,51.28
2022-10-08T10:25:38.491Z,50.65
2022-10-08T10:28:14.260Z,50.95
2022-10-08T10:30:52.040Z,50.48
2022-10-08T10:33:25.088Z,51.31
2022-10-08T10:35:56.940Z,50.25
2022-10-08T10:38:28.413Z,49.80
2022-10-08T10:41:10.506Z,50.49
2022-10-08T10:43:48.517Z,51.14
2022-10-08T10:46:26.441Z,50.67
2022-10-08T10:48:54.645Z,49.71
2022-10-08T10:51:42.570Z,49.50
2022-10-08T10:54:27.601Z,48.71
2022-10-08T10:57:00.691Z,48.66
2022-10-08T10:59:45.004Z,48.30
2022-10-08T11:02:23.116Z,46.65
2022-10-08T11:05:02.521Z,46.66
2022-10-08T11:07:48.343Z,48.26
2022-10-08T11:10:29.965Z,47.24
2022-10-08T11:13:06.688Z,49.19
2022-10-08T11:15:41.617Z,47.82
2022-10-08T11:18:26.631Z,46.96
2022-10-08T11:21:06.313Z,47.86
2022-10-08T11:23:55.864Z,48.28
2022-10-08T11:26:30.381Z,48.46
2022-10-08T11:29:07.317Z,47.10
2022-10-08T11:31:42.698Z,47.91
2022-10-08T11:34:34.151Z,48.06
2022-10-08T11:37:13.283Z,46.94
2022-10-08T11:39:48.653Z,46.10
2022-10-08T11:42:25.945Z,45.74
2022-10-08T11:44:54.023Z,46.55
2022-10-08T11:47:51.056Z,46.50
2022-10-08T11:50:31.498Z,45.81
2022-10-08T11:53:18.435Z,44.74
2022-10-08T11:55:52.381Z,45.51
2022-10-08T11:58:24.881Z,45.11
2022-10-08T12:01:01.974Z,44.92
2022-10-08T12:03:34.806Z,44.37
2022-10-08T12:06:17.132Z,44.02
2022-10-08T12:08:53.798Z,45.25
2022-10-08T12:11:50.880Z,44.99
2022-10-08T12:14:47.489Z,46.05
2022-10-08T12:17:16.363Z,46.16
2022-10-08T12:20:22.612Z,45.62
2022-10-08T12:23:02.297Z,45.12
2022-10-08T12:25:37.461Z,44.47
2022-10-08T12:28:53.096Z,44.01
2022-10-08T12:31:44.219Z,44.44
2022-10-08T12:34:18.778Z,44.49
2022-10-08T12:37:01.998Z,44.80
2022-10-08T12:39:39.837Z,44.55
2022-10-08T12:42:18.991Z,43.19
2022-10-08T12:45:07.962Z,45.53
2022-10-08T12:47:45.671Z,44.58
2022-10-08T12:50:38.038Z,43.95
2022-10-08T12:53:09.550Z,44.27
2022-10-08T12:55:47.106Z,44.46
2022-10-08T12:58:19.098Z,44.11
2022-10-08T13:00:52.673Z,43.65
2022-10-08T13:03:21.888Z,43.41
2022-10-08T13:05:50.773Z,44.12
2022-10-08T13:08:30.314Z,44.42
2022-10-08T13:11:00.221Z,47.64
2022-10-08T13:13:35.117Z,50.71
2022-10-08T13:16:04.678Z,52.12
2022-10-08T13:18:34.573Z,53.73
2022-10-08T13:21:04.583Z,54.59
2022-10-08T13:23:37.401Z,56.87
2022-10-08T13:26:05.497Z,57.10
2022-10-08T13:28:59.404Z,55.91
2022-10-08T13:31:24.886Z,55.29
2022-10-08T13:33:53.186Z,55.97
2022-10-08T13:36:23.897Z,56.77
2022-10-08T13:38:53.647Z,59.57
2022-10-08T13:41:25.289Z,59.79
2022-10-08T13:43:53.422Z,58.47
2022-10-08T13:46:21.691Z,59.27
2022-10-08T13:48:49.836Z,60.91
2022-10-08T13:51:17.999Z,59.98
2022-10-08T13:53:46.225Z,64.23
2022-10-08T13:56:18.211Z,65.88
2022-10-08T13:58:46.459Z,66.94
2022-10-08T14:01:14.634Z,67.14
2022-10-08T14:03:42.801Z,66.96
2022-10-08T14:06:11.109Z,67.12
2022-10-08T14:08:39.239Z,67.00
2022-10-08T14:11:17.857Z,67.86
2022-10-08T14:13:45.956Z,68.86
2022-10-08T14:16:14.581Z,67.57
2022-10-08T14:18:42.840Z,68.58
2022-10-08T14:21:14.065Z,68.40
2022-10-08T14:23:42.228Z,68.70
2022-10-08T14:26:12.886Z,69.12
2022-10-08T14:28:42.537Z,69.02
2022-10-08T14:31:13.867Z,68.25
2022-10-08T14:33:42.109Z,68.79
2022-10-08T14:36:17.059Z,69.55
2022-10-08T14:38:45.445Z,68.83
2022-10-08T14:41:13.939Z,69.28
2022-10-08T14:43:43.687Z,69.67
2022-10-08T14:46:11.877Z,70.14
2022-10-08T14:48:41.061Z,71.10
2022-10-08T14:51:09.184Z,70.80
2022-10-08T14:53:37.284Z,70.91
2022-10-08T14:56:12.400Z,71.30
2022-10-08T14:58:41.080Z,71.95
2022-10-08T15:01:10.873Z,71.73
2022-10-08T15:03:39.155Z,72.04
2022-10-08T15:06:07.686Z,72.59
2022-10-08T15:08:35.992Z,72.62
2022-10-08T15:11:04.776Z,73.04
2022-10-08T15:13:33.162Z,72.66
2022-10-08T15:16:01.403Z,72.67
2022-10-08T15:18:32.639Z,72.63
2022-10-08T15:21:01.760Z,73.14
2022-10-08T15:23:30.581Z,72.95
2022-10-08T15:25:59.704Z,73.24
2022-10-08T15:28:28.984Z,73.70
2022-10-08T15:31:05.117Z,74.24
2022-10-08T15:33:39.212Z,74.54
2022-10-08T15:36:21.279Z,75.29
2022-10-08T15:38:55.533Z,75.71
2022-10-08T15:41:23.859Z,75.60
2022-10-08T15:43:52.063Z,76.04
2022-10-08T15:46:22.617Z,76.14
2022-10-08T15:48:57.166Z,76.25
2022-10-08T15:51:26.081Z,76.60
2022-10-08T15:53:54.263Z,76.35
2022-10-08T15:56:22.386Z,76.43
2022-10-08T15:58:51.564Z,76.85
2022-10-08T16:01:21.587Z,76.33
2022-10-08T16:03:51.934Z,76.53
2022-10-08T16:06:23.600Z,76.68
2022-10-08T16:08:51.904Z,76.25
2022-10-08T16:11:21.878Z,75.85
2022-10-08T16:13:51.995Z,76.35
2022-10-08T16:16:21.376Z,77.20
2022-10-08T16:18:52.972Z,76.43
2022-10-08T16:21:22.680Z,76.36
2022-10-08T16:23:50.932Z,76.65
2022-10-08T16:26:21.599Z,76.48
2022-10-08T16:28:51.623Z,76.78
2022-10-08T16:31:20.233Z,76.80
2022-10-08T16:33:49.424Z,76.53
2022-10-08T16:36:17.535Z,76.07
2022-10-08T16:38:47.094Z,75.53
2022-10-08T16:41:17.778Z,75.11
2022-10-08T16:43:47.418Z,74.79
2022-10-08T16:46:17.701Z,74.63
2022-10-08T16:48:51.308Z,74.16
2022-10-08T16:51:19.683Z,74.40
2022-10-08T16:53:53.342Z,74.13
2022-10-08T16:56:22.893Z,73.97
2022-10-08T16:58:53.149Z,74.41
2022-10-08T17:01:21.910Z,74.54
2022-10-08T17:03:51.126Z,75.36
2022-10-08T17:06:20.539Z,75.66
2022-10-08T17:08:49.805Z,75.46
2022-10-08T17:11:20.178Z,75.03
2022-10-08T17:13:50.182Z,74.97
2022-10-08T17:16:19.737Z,74.98
2022-10-08T17:18:50.899Z,75.32
2022-10-08T17:21:19.289Z,75.58
2022-10-08T17:23:47.531Z,75.40
2022-10-08T17:26:17.363Z,75.65
2022-10-08T17:28:49.156Z,75.00
2022-10-08T17:31:19.143Z,74.79
2022-10-08T17:33:47.936Z,74.51
2022-10-08T17:36:18.302Z,74.99
2022-10-08T17:38:49.556Z,76.20
2022-10-08T17:41:19.560Z,76.45
2022-10-08T17:43:50.594Z,76.98
2022-10-08T17:46:20.931Z,77.71
2022-10-08T17:48:49.864Z,78.15
2022-10-08T17:51:19.593Z,77.69
2022-10-08T17:53:53.319Z,77.94
2022-10-08T17:56:22.559Z,77.60
2022-10-08T17:58:52.718Z,77.52
2022-10-08T18:01:22.662Z,77.78
2022-10-08T18:03:52.832Z,77.83
2022-10-08T18:06:21.548Z,78.00
2022-10-08T18:08:50.050Z,77.71
2022-10-08T18:11:18.598Z,76.90
2022-10-08T18:13:46.726Z,76.63
2022-10-08T18:16:18.202Z,76.46
2022-10-08T18:18:47.919Z,77.03
2022-10-08T18:21:18.623Z,76.83
2022-10-08T18:23:47.522Z,76.46
2022-10-08T18:26:18.862Z,76.73
2022-10-08T18:28:48.241Z,76.99
2022-10-08T18:31:20.107Z,77.07
2022-10-08T18:33:51.130Z,77.35
2022-10-08T18:36:20.963Z,77.43
2022-10-08T18:38:50.280Z,77.81
2022-10-08T18:41:20.520Z,77.24
2022-10-08T18:43:50.228Z,77.30
2022-10-08T18:46:21.460Z,76.70
2022-10-08T18:48:50.533Z,76.71
2022-10-08T18:51:21.484Z,76.16
2022-10-08T18:53:50.670Z,76.10
2022-10-08T18:56:20.991Z,75.97
2022-10-08T18:58:50.683Z,75.74
2022-10-08T19:01:22.462Z,75.14
2022-10-08T19:03:53.212Z,75.20
2022-10-08T19:06:23.130Z,74.84
2022-10-08T19:08:51.947Z,74.96
2022-10-08T19:11:22.202Z,74.65
2022-10-08T19:13:50.956Z,74.61
2022-10-08T19:16:20.638Z,74.76
2022-10-08T19:18:54.682Z,74.78
2022-10-08T19:21:23.655Z,74.49
2022-10-08T19:23:51.875Z,74.76
2022-10-08T19:26:20.706Z,74.80
2022-10-08T19:28:51.687Z,74.84
2022-10-08T19:31:23.028Z,74.55
2022-10-08T19:33:52.025Z,74.65
2022-10-08T19:36:21.101Z,74.55
2022-10-08T19:38:52.803Z,74.39
2022-10-08T19:41:21.900Z,74.59
2022-10-08T19:43:50.134Z,74.30
2022-10-08T19:46:18.937Z,74.24
2022-10-08T19:48:51.556Z,74.29
2022-10-08T19:51:21.296Z,74.10
2022-10-08T19:53:50.116Z,73.67
2022-10-08T19:56:19.379Z,73.50
2022-10-08T19:58:49.606Z,73.63
2022-10-08T20:01:20.189Z,73.44
2022-10-08T20:03:48.740Z,73.30
2022-10-08T20:06:24.367Z,73.21
2022-10-08T20:08:54.708Z,73.27
2022-10-08T20:11:23.406Z,73.43
2022-10-08T20:13:53.288Z,73.59
2022-10-08T20:16:23.478Z,74.07
2022-10-08T20:18:53.157Z,73.62
2022-10-08T20:21:23.710Z,73.54
2022-10-08T20:23:52.007Z,73.18
2022-10-08T20:26:22.157Z,73.01
2022-10-08T20:28:52.019Z,73.39
2022-10-08T20:31:22.008Z,73.55
2022-10-08T20:33:55.717Z,73.52
2022-10-08T20:36:25.590Z,73.76
2022-10-08T20:38:53.782Z,73.99
2022-10-08T20:41:25.453Z,73.94
2022-10-08T20:44:00.367Z,73.98
2022-10-08T20:46:28.808Z,74.14
2022-10-08T20:48:57.138Z,74.15
2022-10-08T20:51:28.432Z,74.33
2022-10-08T20:53:57.796Z,73.99
2022-10-08T20:56:26.982Z,73.92
2022-10-08T20:58:55.772Z,73.93
2022-10-08T21:01:26.039Z,74.34
2022-10-08T21:03:54.878Z,74.13
2022-10-08T21:06:24.630Z,74.02
2022-10-08T21:08:56.574Z,74.11
2022-10-08T21:11:27.384Z,73.92
2022-10-08T21:13:55.748Z,74.07
2022-10-08T21:16:26.033Z,73.90
2022-10-08T21:18:55.894Z,74.08
2022-10-08T21:21:24.150Z,74.02
2022-10-08T21:23:54.029Z,73.74
2022-10-08T21:26:24.030Z,74.39
2022-10-08T21:28:54.325Z,74.49
2022-10-08T21:31:23.468Z,74.26
2022-10-08T21:33:53.355Z,74.74
2022-10-08T21:36:23.336Z,74.72
2022-10-08T21:38:51.452Z,74.68
2022-10-08T21:41:22.358Z,74.80
2022-10-08T21:43:52.238Z,74.79
2022-10-08T21:46:22.408Z,75.22
2022-10-08T21:48:55.289Z,75.44
2022-10-08T21:51:23.820Z,75.15
2022-10-08T21:53:53.746Z,75.43
2022-10-08T21:56:25.357Z,75.37
2022-10-08T21:58:54.994Z,75.61
2022-10-08T22:01:25.986Z,75.49
2022-10-08T22:03:55.762Z,75.24
2022-10-08T22:06:24.305Z,75.23
2022-10-08T22:08:52.961Z,75.25
2022-10-08T22:11:23.307Z,75.17
2022-10-08T22:13:52.115Z,75.17
2022-10-08T22:16:23.053Z,74.77
2022-10-08T22:18:51.168Z,75.17
2022-10-08T22:21:21.603Z,74.84
2022-10-08T22:23:51.389Z,75.00
2022-10-08T22:26:22.817Z,74.54
2022-10-08T22:28:52.501Z,74.39
2022-10-08T22:31:21.455Z,74.18
2022-10-08T22:33:50.312Z,73.88
2022-10-08T22:36:21.926Z,73.66
2022-10-08T22:38:50.405Z,73.70
2022-10-08T22:41:21.033Z,73.30
2022-10-08T22:43:49.229Z,73.38
2022-10-08T22:46:20.395Z,73.41
2022-10-08T22:48:48.976Z,73.18
2022-10-08T22:51:18.354Z,73.07
2022-10-08T22:53:47.165Z,72.97
2022-10-08T22:56:17.051Z,72.97
2022-10-08T22:58:45.732Z,72.57
2022-10-08T23:01:15.205Z,72.54
2022-10-08T23:03:44.801Z,72.36
2022-10-08T23:06:16.394Z,72.10
2022-10-08T23:08:45.784Z,72.24
2022-10-08T23:11:14.836Z,72.22
2022-10-08T23:13:45.629Z,71.94
2022-10-08T23:16:16.613Z,71.92
2022-10-08T23:18:47.544Z,71.88
2022-10-08T23:21:17.601Z,71.70
2022-10-08T23:23:47.232Z,71.65
2022-10-08T23:26:16.294Z,71.87
2022-10-08T23:28:46.024Z,71.73
2022-10-08T23:31:16.294Z,71.79
2022-10-08T23:33:47.416Z,71.63
2022-10-08T23:36:18.354Z,71.27
2022-10-08T23:38:46.847Z,71.20
2022-10-08T23:41:15.472Z,71.43
2022-10-08T23:43:44.814Z,71.25
2022-10-08T23:46:14.157Z,70.91
2022-10-08T23:48:43.335Z,70.97
2022-10-08T23:51:13.988Z,71.05
2022-10-08T23:53:43.116Z,71.20
2022-10-08T23:56:12.236Z,70.84
2022-10-08T23:58:40.792Z,70.80
